Time,TemperatureF,DewpointF,PressureIn,WindDirection,WindDirectionDegrees,WindSpeedMPH,WindSpeedGustMPH,Humidity,HourlyPrecipIn,Conditions,Clouds,dailyrainin,SoftwareType,DateUTC
2013-07-09 00:00:00,75.2,66.4,30.18,ESE,113,0.4,0.4,74,0.00,,,0.01,WUHU216HW,2013-07-09 04:00:00,
2013-07-09 00:01:00,75.2,66.4,30.18,ESE,113,0.4,0.4,74,0.00,,,0.01,WUHU216HW,2013-07-09 04:01:00,
2013-07-09 00:02:00,75.2,66.4,30.18,ESE,113,0.4,0.4,74,0.00,,,0.01,WUHU216HW,2013-07-09 04:02:00,
2013-07-09 00:07:00,75.2,66.4,30.18,ESE,113,0.4,0.4,74,0.00,,,0.01,WUHU216HW,2013-07-09 04:07:00,
2013-07-09 00:29:00,74.3,65.5,30.18,ESE,113,0.0,0.0,74,0.00,,,0.00,WUHU216HW,2013-07-09 04:29:00,
2013-07-09 00:30:00,74.3,65.5,30.18,ESE,113,0.0,0.0,74,0.00,,,0.00,WUHU216HW,2013-07-09 04:30:00,
2013-07-09 00:35:00,74.3,65.5,30.18,ESE,113,0.0,0.0,74,0.00,,,0.00,WUHU216HW,2013-07-09 04:35:00,
2013-07-09 01:00:00,74.7,65.9,30.18,East,90,0.0,0.0,74,0.00,,,0.00,WUHU216HW,2013-07-09 05:00:00,
2013-07-09 01:05:00,74.7,65.9,30.18,East,90,0.0,0.0,74,0.00,,,0.00,WUHU216HW,2013-07-09 05:05:00,
2013-07-09 01:30:00,74.2,66.5,30.18,East,90,0.0,0.0,77,0.00,,,0.00,WUHU216HW,2013-07-09 05:30:00,
2013-07-09 01:35:00,74.2,66.5,30.18,East,90,0.0,0.0,77,0.00,,,0.00,WUHU216HW,2013-07-09 05:35:00,
2013-07-09 02:00:00,75.1,67.0,30.18,SSW,203,0.8,0.8,76,0.00,,,0.00,WUHU216HW,2013-07-09 06:00:00,
2013-07-09 02:05:00,75.1,67.0,30.18,SSW,203,0.8,0.8,76,0.00,,,0.00,WUHU216HW,2013-07-09 06:05:00,
2013-07-09 02:30:00,75.1,66.6,30.17,South,180,0.0,0.0,75,0.00,,,0.00,WUHU216HW,2013-07-09 06:30:00,
2013-07-09 02:35:00,75.1,66.6,30.17,South,180,0.0,0.0,75,0.00,,,0.00,WUHU216HW,2013-07-09 06:35:00,
2013-07-09 03:00:00,75.4,67.0,30.17,ENE,68,0.0,0.0,75,0.00,,,0.00,WUHU216HW,2013-07-09 07:00:00,
2013-07-09 03:05:00,75.4,67.0,30.17,ENE,68,0.0,0.0,75,0.00,,,0.00,WUHU216HW,2013-07-09 07:05:00,
2013-07-09 03:30:00,74.7,66.2,30.16,South,180,0.0,0.0,75,0.00,,,0.00,WUHU216HW,2013-07-09 07:30:00,
2013-07-09 03:35:00,74.7,66.2,30.16,South,180,0.0,0.0,75,0.00,,,0.00,WUHU216HW,2013-07-09 07:35:00,
2013-07-09 04:00:00,74.5,66.5,30.16,South,180,0.0,0.0,76,0.00,,,0.00,WUHU216HW,2013-07-09 08:00:00,
2013-07-09 04:05:00,74.5,66.5,30.16,South,180,0.0,0.0,76,0.00,,,0.00,WUHU216HW,2013-07-09 08:05:00,
2013-07-09 04:30:00,74.0,66.0,30.16,South,180,0.0,0.0,76,0.00,,,0.00,WUHU216HW,2013-07-09 08:30:00,
2013-07-09 04:35:00,74.0,66.0,30.16,South,180,0.0,0.0,76,0.00,,,0.00,WUHU216HW,2013-07-09 08:35:00,
2013-07-09 05:00:00,73.8,66.2,30.16,South,180,0.0,0.0,77,0.00,,,0.00,WUHU216HW,2013-07-09 09:00:00,
2013-07-09 05:05:00,73.8,66.2,30.16,South,180,0.0,0.0,77,0.00,,,0.00,WUHU216HW,2013-07-09 09:05:00,
2013-07-09 05:30:00,73.8,66.2,30.16,South,180,0.0,0.0,77,0.00,,,0.00,WUHU216HW,2013-07-09 09:30:00,
2013-07-09 05:35:00,73.8,66.2,30.16,South,180,0.0,0.0,77,0.00,,,0.00,WUHU216HW,2013-07-09 09:35:00,
2013-07-09 05:59:00,74.5,67.2,30.17,SE,135,0.0,0.0,78,0.00,,,0.00,WUHU216HW,2013-07-09 09:59:00,
2013-07-09 06:00:00,74.5,67.2,30.17,SE,135,0.0,0.0,78,0.00,,,0.00,WUHU216HW,2013-07-09 10:00:00,
2013-07-09 06:05:00,74.5,67.2,30.17,SE,135,0.0,0.0,78,0.00,,,0.00,WUHU216HW,2013-07-09 10:05:00,
2013-07-09 06:30:00,74.3,67.9,30.16,NE,45,0.0,0.0,80,0.00,,,0.00,WUHU216HW,2013-07-09 10:30:00,
2013-07-09 06:35:00,74.3,67.9,30.16,NE,45,0.0,0.0,80,0.00,,,0.00,WUHU216HW,2013-07-09 10:35:00,
2013-07-09 06:59:00,75.1,68.2,30.17,NE,45,0.4,0.4,79,0.00,,,0.00,WUHU216HW,2013-07-09 10:59:00,
2013-07-09 07:00:00,75.1,68.2,30.17,NE,45,0.4,0.4,79,0.00,,,0.00,WUHU216HW,2013-07-09 11:00:00,
2013-07-09 07:05:00,75.1,68.2,30.17,NE,45,0.4,0.4,79,0.00,,,0.00,WUHU216HW,2013-07-09 11:05:00,
2013-07-09 07:30:00,76.1,68.8,30.17,WNW,293,0.8,0.8,78,0.00,,,0.00,WUHU216HW,2013-07-09 11:30:00,
2013-07-09 07:35:00,76.1,68.8,30.17,WNW,293,0.8,0.8,78,0.00,,,0.00,WUHU216HW,2013-07-09 11:35:00,
2013-07-09 07:59:00,76.3,68.9,30.17,WSW,248,0.8,0.8,78,0.00,,,0.00,WUHU216HW,2013-07-09 11:59:00,
2013-07-09 08:00:00,76.3,68.9,30.17,WSW,248,0.8,0.8,78,0.00,,,0.00,WUHU216HW,2013-07-09 12:00:00,
2013-07-09 08:05:00,76.3,68.9,30.17,WSW,248,0.8,0.8,78,0.00,,,0.00,WUHU216HW,2013-07-09 12:05:00,
2013-07-09 08:30:00,76.9,69.1,30.17,SW,225,0.0,0.0,77,0.00,,,0.00,WUHU216HW,2013-07-09 12:30:00,
2013-07-09 08:35:00,76.9,69.1,30.17,SW,225,0.0,0.0,77,0.00,,,0.00,WUHU216HW,2013-07-09 12:35:00,
2013-07-09 08:59:00,77.4,69.2,30.18,WSW,248,0.0,0.0,76,0.00,,,0.00,WUHU216HW,2013-07-09 12:59:00,
2013-07-09 09:00:00,77.4,69.2,30.18,WSW,248,0.0,0.0,76,0.00,,,0.00,WUHU216HW,2013-07-09 13:00:00,
2013-07-09 09:05:00,77.4,69.2,30.18,WSW,248,0.0,0.0,76,0.00,,,0.00,WUHU216HW,2013-07-09 13:05:00,
2013-07-09 09:30:00,77.6,69.0,30.18,SSW,203,0.0,0.0,75,0.00,,,0.00,WUHU216HW,2013-07-09 13:30:00,
2013-07-09 09:35:00,77.6,69.0,30.18,SSW,203,0.0,0.0,75,0.00,,,0.00,WUHU216HW,2013-07-09 13:35:00,
2013-07-09 09:59:00,78.8,69.9,30.18,SSW,203,0.0,0.0,74,0.00,,,0.00,WUHU216HW,2013-07-09 13:59:00,
2013-07-09 10:00:00,78.8,69.9,30.18,SSW,203,0.0,0.0,74,0.00,,,0.00,WUHU216HW,2013-07-09 14:00:00,
2013-07-09 10:05:00,78.8,69.9,30.18,SSW,203,0.0,0.0,74,0.00,,,0.00,WUHU216HW,2013-07-09 14:05:00,
2013-07-09 10:29:00,79.0,70.4,30.18,SSE,158,0.8,0.8,75,0.00,,,0.00,WUHU216HW,2013-07-09 14:29:00,
2013-07-09 10:30:00,79.0,70.4,30.18,SSE,158,0.8,0.8,75,0.00,,,0.00,WUHU216HW,2013-07-09 14:30:00,
2013-07-09 10:35:00,79.0,70.4,30.18,SSE,158,0.8,0.8,75,0.00,,,0.00,WUHU216HW,2013-07-09 14:35:00,
2013-07-09 11:00:00,79.2,70.2,30.18,SSE,158,0.4,0.4,74,0.00,,,0.00,WUHU216HW,2013-07-09 15:00:00,
2013-07-09 11:05:00,79.2,70.2,30.18,SSE,158,0.4,0.4,74,0.00,,,0.00,WUHU216HW,2013-07-09 15:05:00,
2013-07-09 11:29:00,79.9,71.3,30.19,East,90,0.0,0.0,75,0.00,,,0.00,WUHU216HW,2013-07-09 15:29:00,
2013-07-09 11:30:00,79.9,71.3,30.19,East,90,0.0,0.0,75,0.00,,,0.00,WUHU216HW,2013-07-09 15:30:00,
2013-07-09 11:35:00,79.9,71.3,30.19,East,90,0.0,0.0,75,0.00,,,0.00,WUHU216HW,2013-07-09 15:35:00,
2013-07-09 12:00:00,79.7,71.1,30.19,SW,225,0.0,0.0,75,0.00,,,0.00,WUHU216HW,2013-07-09 16:00:00,
2013-07-09 12:05:00,79.7,71.1,30.19,SW,225,0.0,0.0,75,0.00,,,0.00,WUHU216HW,2013-07-09 16:05:00,
2013-07-09 12:30:00,81.5,71.6,30.18,ESE,113,0.0,0.0,72,0.00,,,0.00,WUHU216HW,2013-07-09 16:30:00,
2013-07-09 12:35:00,81.5,71.6,30.18,ESE,113,0.0,0.0,72,0.00,,,0.00,WUHU216HW,2013-07-09 16:35:00,
2013-07-09 12:59:00,83.2,72.4,30.17,SSE,158,2.2,2.2,70,0.00,,,0.00,WUHU216HW,2013-07-09 16:59:00,
2013-07-09 13:00:00,83.2,72.4,30.17,SSE,158,2.2,2.2,70,0.00,,,0.00,WUHU216HW,2013-07-09 17:00:00,
2013-07-09 13:05:00,83.2,72.4,30.17,SSE,158,2.2,2.2,70,0.00,,,0.00,WUHU216HW,2013-07-09 17:05:00,
2013-07-09 13:29:00,85.5,73.4,30.16,SW,225,0.4,0.4,67,0.00,,,0.00,WUHU216HW,2013-07-09 17:29:00,
2013-07-09 13:30:00,85.5,73.4,30.16,SW,225,0.4,0.4,67,0.00,,,0.00,WUHU216HW,2013-07-09 17:30:00,
2013-07-09 13:35:00,85.5,73.4,30.16,SW,225,0.4,0.4,67,0.00,,,0.00,WUHU216HW,2013-07-09 17:35:00,
2013-07-09 14:00:00,85.3,73.6,30.15,ENE,68,0.8,0.8,68,0.00,,,0.00,WUHU216HW,2013-07-09 18:00:00,
2013-07-09 14:05:00,85.3,73.6,30.15,ENE,68,0.8,0.8,68,0.00,,,0.00,WUHU216HW,2013-07-09 18:05:00,
2013-07-09 14:30:00,86.4,73.7,30.14,East,90,2.2,2.2,66,0.00,,,0.00,WUHU216HW,2013-07-09 18:30:00,
2013-07-09 14:35:00,86.4,73.7,30.14,East,90,2.2,2.2,66,0.00,,,0.00,WUHU216HW,2013-07-09 18:35:00,
2013-07-09 15:00:00,85.7,70.2,30.14,ENE,68,0.4,0.4,60,0.00,,,0.00,WUHU216HW,2013-07-09 19:00:00,
2013-07-09 15:05:00,85.7,70.2,30.14,ENE,68,0.4,0.4,60,0.00,,,0.00,WUHU216HW,2013-07-09 19:05:00,
2013-07-09 15:30:00,86.0,71.5,30.12,SSE,158,1.4,1.4,62,0.00,,,0.00,WUHU216HW,2013-07-09 19:30:00,
2013-07-09 15:35:00,86.0,71.5,30.12,SSE,158,1.4,1.4,62,0.00,,,0.00,WUHU216HW,2013-07-09 19:35:00,
2013-07-09 16:00:00,85.1,72.0,30.13,ENE,68,0.8,0.8,65,0.00,,,0.00,WUHU216HW,2013-07-09 20:00:00,
2013-07-09 16:05:00,85.1,72.0,30.13,ENE,68,0.8,0.8,65,0.00,,,0.00,WUHU216HW,2013-07-09 20:05:00,
2013-07-09 16:30:00,83.5,71.4,30.12,ENE,68,0.8,0.8,67,0.00,,,0.00,WUHU216HW,2013-07-09 20:30:00,
2013-07-09 16:35:00,83.5,71.4,30.12,ENE,68,0.8,0.8,67,0.00,,,0.00,WUHU216HW,2013-07-09 20:35:00,
2013-07-09 17:00:00,82.4,71.6,30.11,ENE,68,0.8,0.8,70,0.00,,,0.00,WUHU216HW,2013-07-09 21:00:00,
2013-07-09 17:05:00,82.4,71.6,30.11,ENE,68,0.8,0.8,70,0.00,,,0.00,WUHU216HW,2013-07-09 21:05:00,
2013-07-09 17:30:00,82.3,71.0,30.11,NNE,23,0.8,0.8,69,0.00,,,0.00,WUHU216HW,2013-07-09 21:30:00,
2013-07-09 17:35:00,82.3,71.0,30.11,NNE,23,0.8,0.8,69,0.00,,,0.00,WUHU216HW,2013-07-09 21:35:00,
2013-07-09 18:00:00,81.5,69.9,30.10,ESE,113,1.4,1.4,68,0.00,,,0.00,WUHU216HW,2013-07-09 22:00:00,
2013-07-09 18:05:00,81.5,69.9,30.10,ESE,113,1.4,1.4,68,0.00,,,0.00,WUHU216HW,2013-07-09 22:05:00,
2013-07-09 18:30:00,81.9,70.3,30.09,ENE,68,1.4,1.4,68,0.00,,,0.00,WUHU216HW,2013-07-09 22:30:00,
2013-07-09 18:35:00,81.9,70.3,30.09,ENE,68,1.4,1.4,68,0.00,,,0.00,WUHU216HW,2013-07-09 22:35:00,
2013-07-09 19:00:00,82.1,70.4,30.11,SSW,203,1.4,1.4,68,0.00,,,0.00,WUHU216HW,2013-07-09 23:00:00,
2013-07-09 19:05:00,82.1,70.4,30.11,SSW,203,1.4,1.4,68,0.00,,,0.00,WUHU216HW,2013-07-09 23:05:00,
2013-07-09 19:30:00,81.2,69.1,30.12,SSW,203,6.8,6.8,67,0.00,,,0.00,WUHU216HW,2013-07-09 23:30:00,
2013-07-09 19:35:00,81.2,69.1,30.12,SSW,203,6.8,6.8,67,0.00,,,0.00,WUHU216HW,2013-07-09 23:35:00,
2013-07-09 19:59:00,79.9,67.5,30.12,SSE,158,4.0,4.0,66,0.00,,,0.00,WUHU216HW,2013-07-09 23:59:00,
2013-07-09 20:00:00,79.9,67.5,30.12,SSE,158,4.0,4.0,66,0.00,,,0.00,WUHU216HW,2013-07-10 00:00:00,
2013-07-09 20:05:00,79.9,67.5,30.12,SSE,158,4.0,4.0,66,0.00,,,0.00,WUHU216HW,2013-07-10 00:05:00,
2013-07-09 20:30:00,79.6,67.1,30.12,ENE,68,0.0,0.0,66,0.00,,,0.00,WUHU216HW,2013-07-10 00:30:00,
2013-07-09 20:35:00,79.6,67.1,30.12,ENE,68,0.0,0.0,66,0.00,,,0.00,WUHU216HW,2013-07-10 00:35:00,
2013-07-09 20:59:00,77.4,66.1,30.12,SE,135,0.0,0.0,68,0.00,,,0.00,WUHU216HW,2013-07-10 00:59:00,
2013-07-09 21:00:00,77.4,66.1,30.12,SE,135,0.0,0.0,68,0.00,,,0.00,WUHU216HW,2013-07-10 01:00:00,
2013-07-09 21:05:00,77.4,66.1,30.12,SE,135,0.0,0.0,68,0.00,,,0.00,WUHU216HW,2013-07-10 01:05:00,
2013-07-09 21:30:00,77.4,67.0,30.13,NW,315,0.0,0.0,70,0.00,,,0.00,WUHU216HW,2013-07-10 01:30:00,
2013-07-09 21:35:00,77.4,67.0,30.13,NW,315,0.0,0.0,70,0.00,,,0.00,WUHU216HW,2013-07-10 01:35:00,
2013-07-09 21:59:00,76.5,66.1,30.13,ENE,68,0.0,0.0,70,0.00,,,0.00,WUHU216HW,2013-07-10 01:59:00,
2013-07-09 22:00:00,76.5,66.1,30.13,ENE,68,0.0,0.0,70,0.00,,,0.00,WUHU216HW,2013-07-10 02:00:00,
2013-07-09 22:05:00,76.5,66.1,30.13,ENE,68,0.0,0.0,70,0.00,,,0.00,WUHU216HW,2013-07-10 02:05:00,
2013-07-09 22:30:00,75.8,66.5,30.14,East,90,0.0,0.0,73,0.00,,,0.00,WUHU216HW,2013-07-10 02:30:00,
2013-07-09 22:35:00,75.8,66.5,30.14,East,90,0.0,0.0,73,0.00,,,0.00,WUHU216HW,2013-07-10 02:35:00,
2013-07-09 22:59:00,74.9,65.6,30.15,East,90,0.0,0.0,73,0.00,,,0.00,WUHU216HW,2013-07-10 02:59:00,
2013-07-09 23:00:00,74.9,65.6,30.15,East,90,0.0,0.0,73,0.00,,,0.00,WUHU216HW,2013-07-10 03:00:00,
2013-07-09 23:05:00,74.9,65.6,30.15,East,90,0.0,0.0,73,0.00,,,0.00,WUHU216HW,2013-07-10 03:05:00,
2013-07-09 23:30:00,74.9,66.4,30.14,SSW,203,0.8,0.8,75,0.00,,,0.00,WUHU216HW,2013-07-10 03:30:00,
2013-07-09 23:35:00,74.9,66.4,30.14,SSW,203,0.8,0.8,75,0.00,,,0.00,WUHU216HW,2013-07-10 03:35:00,
2013-07-09 23:59:00,76.0,66.7,30.13,SW,225,0.0,0.0,73,0.00,,,0.00,WUHU216HW,2013-07-10 03:59:00,